sensor_id;sensor_type;location;lat;lon;timestamp;P1;durP1;ratioP1;P2;durP2;ratioP2
7693;SDS011;3889;48.162;11.510;2022-09-28T00:00:58;1.92;;;1.00;;
7693;SDS011;3889;48.162;11.510;2022-09-28T00:03:31;1.10;;;1.00;;
7693;SDS011;3889;48.162;11.510;2022-09-28T00:06:00;1.20;;;0.90;;
7693;SDS011;3889;48.162;11.510;2022-09-28T00:08:28;1.80;;;1.10;;
7693;SDS011;3889;48.162;11.510;2022-09-28T00:10:56;1.60;;;1.10;;
7693;SDS011;3889;48.162;11.510;2022-09-28T00:13:24;1.08;;;1.00;;
7693;SDS011;3889;48.162;11.510;2022-09-28T00:16:02;1.90;;;1.10;;
7693;SDS011;3889;48.162;11.510;2022-09-28T00:18:31;1.10;;;1.00;;
7693;SDS011;3889;48.162;11.510;2022-09-28T00:21:02;1.45;;;1.13;;
7693;SDS011;3889;48.162;11.510;2022-09-28T00:23:31;1.50;;;1.10;;
7693;SDS011;3889;48.162;11.510;2022-09-28T00:26:02;1.23;;;1.10;;
7693;SDS011;3889;48.162;11.510;2022-09-28T00:28:30;1.77;;;1.25;;
7693;SDS011;3889;48.162;11.510;2022-09-28T00:30:58;1.63;;;1.17;;
7693;SDS011;3889;48.162;11.510;2022-09-28T00:33:28;1.90;;;1.08;;
7693;SDS011;3889;48.162;11.510;2022-09-28T00:35:56;1.52;;;1.05;;
7693;SDS011;3889;48.162;11.510;2022-09-28T00:38:27;1.40;;;1.00;;
7693;SDS011;3889;48.162;11.510;2022-09-28T00:40:55;1.25;;;0.95;;
7693;SDS011;3889;48.162;11.510;2022-09-28T00:43:24;2.40;;;1.00;;
7693;SDS011;3889;48.162;11.510;2022-09-28T00:45:54;0.90;;;0.90;;
7693;SDS011;3889;48.162;11.510;2022-09-28T00:48:27;1.30;;;0.90;;
7693;SDS011;3889;48.162;11.510;2022-09-28T00:50:58;2.13;;;1.00;;
7693;SDS011;3889;48.162;11.510;2022-09-28T00:53:30;1.08;;;0.90;;
7693;SDS011;3889;48.162;11.510;2022-09-28T00:56:01;0.93;;;0.83;;
7693;SDS011;3889;48.162;11.510;2022-09-28T00:58:33;1.00;;;0.90;;
7693;SDS011;3889;48.162;11.510;2022-09-28T01:01:05;1.73;;;0.90;;
7693;SDS011;3889;48.162;11.510;2022-09-28T01:03:35;1.25;;;0.93;;
7693;SDS011;3889;48.162;11.510;2022-09-28T01:06:06;1.60;;;0.80;;
7693;SDS011;3889;48.162;11.510;2022-09-28T01:08:35;1.60;;;0.75;;
7693;SDS011;3889;48.162;11.510;2022-09-28T01:11:04;0.95;;;0.75;;
7693;SDS011;3889;48.162;11.510;2022-09-28T01:13:32;1.50;;;0.80;;
7693;SDS011;3889;48.162;11.510;2022-09-28T01:16:02;1.38;;;0.80;;
7693;SDS011;3889;48.162;11.510;2022-09-28T01:18:38;1.25;;;0.80;;
7693;SDS011;3889;48.162;11.510;2022-09-28T01:21:13;1.70;;;0.80;;
7693;SDS011;3889;48.162;11.510;2022-09-28T01:26:48;1.40;;;1.00;;
7693;SDS011;3889;48.162;11.510;2022-09-28T01:29:40;1.60;;;0.80;;
7693;SDS011;3889;48.162;11.510;2022-09-28T01:32:14;2.85;;;1.05;;
7693;SDS011;3889;48.162;11.510;2022-09-28T01:34:51;0.77;;;0.70;;
7693;SDS011;3889;48.162;11.510;2022-09-28T01:37:25;1.20;;;0.80;;
7693;SDS011;3889;48.162;11.510;2022-09-28T01:39:57;1.63;;;1.00;;
7693;SDS011;3889;48.162;11.510;2022-09-28T01:42:28;2.05;;;0.80;;
7693;SDS011;3889;48.162;11.510;2022-09-28T01:45:00;0.85;;;0.70;;
7693;SDS011;3889;48.162;11.510;2022-09-28T01:47:32;2.60;;;0.80;;
7693;SDS011;3889;48.162;11.510;2022-09-28T01:50:04;2.33;;;0.90;;
7693;SDS011;3889;48.162;11.510;2022-09-28T01:52:38;1.23;;;0.70;;
7693;SDS011;3889;48.162;11.510;2022-09-28T01:55:12;1.47;;;0.90;;
7693;SDS011;3889;48.162;11.510;2022-09-28T01:57:46;1.40;;;0.80;;
7693;SDS011;3889;48.162;11.510;2022-09-28T02:00:17;2.17;;;1.02;;
7693;SDS011;3889;48.162;11.510;2022-09-28T02:02:47;1.45;;;1.00;;
7693;SDS011;3889;48.162;11.510;2022-09-28T02:05:20;1.60;;;0.90;;
7693;SDS011;3889;48.162;11.510;2022-09-28T02:07:53;1.70;;;1.00;;
7693;SDS011;3889;48.162;11.510;2022-09-28T02:10:26;1.33;;;1.00;;
7693;SDS011;3889;48.162;11.510;2022-09-28T02:12:59;1.42;;;0.93;;
7693;SDS011;3889;48.162;11.510;2022-09-28T02:15:32;2.22;;;0.90;;
7693;SDS011;3889;48.162;11.510;2022-09-28T02:18:05;1.42;;;0.90;;
7693;SDS011;3889;48.162;11.510;2022-09-28T02:20:33;1.27;;;0.90;;
7693;SDS011;3889;48.162;11.510;2022-09-28T02:23:02;1.85;;;1.00;;
7693;SDS011;3889;48.162;11.510;2022-09-28T02:25:33;0.90;;;0.90;;
7693;SDS011;3889;48.162;11.510;2022-09-28T02:28:07;2.13;;;1.10;;
7693;SDS011;3889;48.162;11.510;2022-09-28T02:30:38;1.70;;;0.98;;
7693;SDS011;3889;48.162;11.510;2022-09-28T02:33:09;1.38;;;0.90;;
7693;SDS011;3889;48.162;11.510;2022-09-28T02:35:40;2.33;;;1.10;;
7693;SDS011;3889;48.162;11.510;2022-09-28T02:38:09;2.03;;;1.05;;
7693;SDS011;3889;48.162;11.510;2022-09-28T02:40:38;2.33;;;0.97;;
7693;SDS011;3889;48.162;11.510;2022-09-28T02:43:12;1.80;;;1.10;;
7693;SDS011;3889;48.162;11.510;2022-09-28T02:45:49;1.17;;;0.98;;
7693;SDS011;3889;48.162;11.510;2022-09-28T02:48:28;1.50;;;0.90;;
7693;SDS011;3889;48.162;11.510;2022-09-28T02:51:23;1.33;;;1.00;;
7693;SDS011;3889;48.162;11.510;2022-09-28T02:54:05;2.85;;;1.00;;
7693;SDS011;3889;48.162;11.510;2022-09-28T02:56:51;1.30;;;0.90;;
7693;SDS011;3889;48.162;11.510;2022-09-28T02:59:30;2.13;;;1.20;;
7693;SDS011;3889;48.162;11.510;2022-09-28T03:02:08;1.02;;;0.90;;
7693;SDS011;3889;48.162;11.510;2022-09-28T03:04:48;1.17;;;0.95;;
7693;SDS011;3889;48.162;11.510;2022-09-28T03:07:31;1.77;;;1.10;;
7693;SDS011;3889;48.162;11.510;2022-09-28T03:10:04;1.98;;;1.08;;
7693;SDS011;3889;48.162;11.510;2022-09-28T03:12:39;1.50;;;1.10;;
7693;SDS011;3889;48.162;11.510;2022-09-28T03:15:12;1.98;;;0.93;;
7693;SDS011;3889;48.162;11.510;2022-09-28T03:17:46;1.17;;;1.07;;
7693;SDS011;3889;48.162;11.510;2022-09-28T03:20:14;1.42;;;1.08;;
7693;SDS011;3889;48.162;11.510;2022-09-28T03:22:42;2.15;;;1.02;;
7693;SDS011;3889;48.162;11.510;2022-09-28T03:25:30;1.17;;;0.80;;
7693;SDS011;3889;48.162;11.510;2022-09-28T03:27:59;1.85;;;1.15;;
7693;SDS011;3889;48.162;11.510;2022-09-28T03:30:28;1.73;;;1.10;;
7693;SDS011;3889;48.162;11.510;2022-09-28T03:32:56;2.42;;;1.13;;
7693;SDS011;3889;48.162;11.510;2022-09-28T03:35:25;1.95;;;1.10;;
7693;SDS011;3889;48.162;11.510;2022-09-28T03:37:53;2.28;;;1.20;;
7693;SDS011;3889;48.162;11.510;2022-09-28T03:40:22;2.80;;;1.17;;
7693;SDS011;3889;48.162;11.510;2022-09-28T03:42:50;2.20;;;1.08;;
7693;SDS011;3889;48.162;11.510;2022-09-28T03:45:19;1.25;;;1.02;;
7693;SDS011;3889;48.162;11.510;2022-09-28T03:47:48;1.45;;;1.20;;
7693;SDS011;3889;48.162;11.510;2022-09-28T03:50:15;2.58;;;1.30;;
7693;SDS011;3889;48.162;11.510;2022-09-28T03:52:43;2.00;;;0.95;;
7693;SDS011;3889;48.162;11.510;2022-09-28T03:55:11;1.85;;;1.00;;
7693;SDS011;3889;48.162;11.510;2022-09-28T03:57:39;1.60;;;1.05;;
7693;SDS011;3889;48.162;11.510;2022-09-28T04:00:07;1.33;;;1.00;;
7693;SDS011;3889;48.162;11.510;2022-09-28T04:02:36;1.92;;;1.10;;
7693;SDS011;3889;48.162;11.510;2022-09-28T04:05:06;1.45;;;1.00;;
7693;SDS011;3889;48.162;11.510;2022-09-28T04:07:34;1.75;;;0.90;;
7693;SDS011;3889;48.162;11.510;2022-09-28T04:10:02;0.98;;;0.90;;
7693;SDS011;3889;48.162;11.510;2022-09-28T04:12:30;1.70;;;1.00;;
7693;SDS011;3889;48.162;11.510;2022-09-28T04:14:58;1.80;;;1.00;;
7693;SDS011;3889;48.162;11.510;2022-09-28T04:17:25;1.48;;;1.08;;
7693;SDS011;3889;48.162;11.510;2022-09-28T04:19:53;1.38;;;0.90;;
7693;SDS011;3889;48.162;11.510;2022-09-28T04:22:22;1.35;;;1.05;;
7693;SDS011;3889;48.162;11.510;2022-09-28T04:24:50;4.30;;;0.85;;
7693;SDS011;3889;48.162;11.510;2022-09-28T04:27:18;2.50;;;1.03;;
7693;SDS011;3889;48.162;11.510;2022-09-28T04:30:04;1.50;;;0.90;;
7693;SDS011;3889;48.162;11.510;2022-09-28T04:32:32;0.90;;;0.90;;
7693;SDS011;3889;48.162;11.510;2022-09-28T04:35:00;1.00;;;0.90;;
7693;SDS011;3889;48.162;11.510;2022-09-28T04:37:29;1.67;;;1.00;;
7693;SDS011;3889;48.162;11.510;2022-09-28T04:39:57;1.27;;;1.17;;
7693;SDS011;3889;48.162;11.510;2022-09-28T04:42:25;1.38;;;1.08;;
7693;SDS011;3889;48.162;11.510;2022-09-28T04:44:53;1.60;;;1.20;;
7693;SDS011;3889;48.162;11.510;2022-09-28T04:47:28;1.73;;;1.15;;
7693;SDS011;3889;48.162;11.510;2022-09-28T04:49:55;1.40;;;1.08;;
7693;SDS011;3889;48.162;11.510;2022-09-28T04:52:23;1.20;;;1.00;;
7693;SDS011;3889;48.162;11.510;2022-09-28T04:54:53;1.55;;;1.10;;
7693;SDS011;3889;48.162;11.510;2022-09-28T04:57:21;1.40;;;1.08;;
7693;SDS011;3889;48.162;11.510;2022-09-28T04:59:49;1.20;;;1.00;;
7693;SDS011;3889;48.162;11.510;2022-09-28T05:02:17;1.10;;;1.00;;
7693;SDS011;3889;48.162;11.510;2022-09-28T05:04:45;2.30;;;0.93;;
7693;SDS011;3889;48.162;11.510;2022-09-28T05:07:13;2.13;;;1.10;;
7693;SDS011;3889;48.162;11.510;2022-09-28T05:09:41;1.80;;;1.10;;
7693;SDS011;3889;48.162;11.510;2022-09-28T05:12:10;2.80;;;1.27;;
7693;SDS011;3889;48.162;11.510;2022-09-28T05:14:38;1.10;;;1.00;;
7693;SDS011;3889;48.162;11.510;2022-09-28T05:17:07;1.67;;;1.08;;
7693;SDS011;3889;48.162;11.510;2022-09-28T05:19:35;1.90;;;1.25;;
7693;SDS011;3889;48.162;11.510;2022-09-28T05:22:03;1.80;;;1.30;;
7693;SDS011;3889;48.162;11.510;2022-09-28T05:24:36;1.90;;;1.10;;
7693;SDS011;3889;48.162;11.510;2022-09-28T05:27:04;1.30;;;1.00;;
7693;SDS011;3889;48.162;11.510;2022-09-28T05:29:34;11.73;;;5.63;;
7693;SDS011;3889;48.162;11.510;2022-09-28T05:32:01;2.17;;;1.17;;
7693;SDS011;3889;48.162;11.510;2022-09-28T05:34:29;3.42;;;2.45;;
7693;SDS011;3889;48.162;11.510;2022-09-28T05:36:57;0.90;;;0.90;;
7693;SDS011;3889;48.162;11.510;2022-09-28T05:39:25;0.93;;;0.90;;
7693;SDS011;3889;48.162;11.510;2022-09-28T05:41:53;1.25;;;1.00;;
7693;SDS011;3889;48.162;11.510;2022-09-28T05:44:22;1.77;;;1.00;;
7693;SDS011;3889;48.162;11.510;2022-09-28T05:46:52;2.42;;;0.95;;
7693;SDS011;3889;48.162;11.510;2022-09-28T05:49:20;1.17;;;0.90;;
7693;SDS011;3889;48.162;11.510;2022-09-28T05:51:48;1.55;;;0.90;;
7693;SDS011;3889;48.162;11.510;2022-09-28T05:54:16;1.00;;;0.70;;
7693;SDS011;3889;48.162;11.510;2022-09-28T05:56:44;0.98;;;0.90;;
7693;SDS011;3889;48.162;11.510;2022-09-28T05:59:11;0.80;;;0.80;;
7693;SDS011;3889;48.162;11.510;2022-09-28T06:01:39;1.60;;;1.00;;
7693;SDS011;3889;48.162;11.510;2022-09-28T06:04:08;5.65;;;3.70;;
7693;SDS011;3889;48.162;11.510;2022-09-28T06:06:36;2.83;;;1.45;;
7693;SDS011;3889;48.162;11.510;2022-09-28T06:09:04;1.57;;;1.10;;
7693;SDS011;3889;48.162;11.510;2022-09-28T06:11:32;2.37;;;0.93;;
7693;SDS011;3889;48.162;11.510;2022-09-28T06:14:00;1.50;;;1.10;;
7693;SDS011;3889;48.162;11.510;2022-09-28T06:16:28;0.97;;;0.93;;
7693;SDS011;3889;48.162;11.510;2022-09-28T06:18:56;1.05;;;0.95;;
7693;SDS011;3889;48.162;11.510;2022-09-28T06:21:25;2.38;;;1.10;;
7693;SDS011;3889;48.162;11.510;2022-09-28T06:23:53;1.00;;;1.00;;
7693;SDS011;3889;48.162;11.510;2022-09-28T06:26:20;1.60;;;1.08;;
7693;SDS011;3889;48.162;11.510;2022-09-28T06:28:48;1.80;;;1.20;;
7693;SDS011;3889;48.162;11.510;2022-09-28T06:31:16;1.40;;;1.30;;
7693;SDS011;3889;48.162;11.510;2022-09-28T06:33:44;1.40;;;1.30;;
7693;SDS011;3889;48.162;11.510;2022-09-28T06:36:14;4.00;;;1.48;;
7693;SDS011;3889;48.162;11.510;2022-09-28T06:38:44;6.07;;;2.10;;
7693;SDS011;3889;48.162;11.510;2022-09-28T06:41:12;3.25;;;1.50;;
7693;SDS011;3889;48.162;11.510;2022-09-28T06:43:40;2.78;;;1.42;;
7693;SDS011;3889;48.162;11.510;2022-09-28T06:46:08;3.75;;;1.40;;
7693;SDS011;3889;48.162;11.510;2022-09-28T06:48:36;4.13;;;1.23;;
7693;SDS011;3889;48.162;11.510;2022-09-28T06:51:04;3.35;;;1.40;;
7693;SDS011;3889;48.162;11.510;2022-09-28T06:53:32;2.35;;;1.30;;
7693;SDS011;3889;48.162;11.510;2022-09-28T06:56:02;6.72;;;1.83;;
7693;SDS011;3889;48.162;11.510;2022-09-28T06:58:30;4.93;;;1.77;;
7693;SDS011;3889;48.162;11.510;2022-09-28T07:00:57;1.97;;;1.30;;
7693;SDS011;3889;48.162;11.510;2022-09-28T07:03:25;1.20;;;1.10;;
7693;SDS011;3889;48.162;11.510;2022-09-28T07:05:54;1.80;;;1.38;;
7693;SDS011;3889;48.162;11.510;2022-09-28T07:08:23;3.50;;;2.05;;
7693;SDS011;3889;48.162;11.510;2022-09-28T07:10:53;1.13;;;0.90;;
7693;SDS011;3889;48.162;11.510;2022-09-28T07:13:24;1.10;;;1.00;;
7693;SDS011;3889;48.162;11.510;2022-09-28T07:16:13;1.55;;;1.10;;
7693;SDS011;3889;48.162;11.510;2022-09-28T07:18:41;2.10;;;1.35;;
7693;SDS011;3889;48.162;11.510;2022-09-28T07:21:08;1.17;;;0.90;;
7693;SDS011;3889;48.162;11.510;2022-09-28T07:23:52;1.33;;;1.20;;
7693;SDS011;3889;48.162;11.510;2022-09-28T07:26:20;2.03;;;1.15;;
7693;SDS011;3889;48.162;11.510;2022-09-28T07:28:51;2.10;;;1.15;;
7693;SDS011;3889;48.162;11.510;2022-09-28T07:31:21;1.10;;;0.90;;
7693;SDS011;3889;48.162;11.510;2022-09-28T07:33:50;2.03;;;1.10;;
7693;SDS011;3889;48.162;11.510;2022-09-28T07:36:18;1.40;;;1.10;;
7693;SDS011;3889;48.162;11.510;2022-09-28T07:38:47;1.97;;;1.27;;
7693;SDS011;3889;48.162;11.510;2022-09-28T07:41:15;1.65;;;1.20;;
7693;SDS011;3889;48.162;11.510;2022-09-28T07:43:47;3.28;;;1.30;;
7693;SDS011;3889;48.162;11.510;2022-09-28T07:46:17;1.85;;;1.00;;
7693;SDS011;3889;48.162;11.510;2022-09-28T07:48:46;4.07;;;1.05;;
7693;SDS011;3889;48.162;11.510;2022-09-28T07:51:17;1.65;;;1.10;;
7693;SDS011;3889;48.162;11.510;2022-09-28T07:53:46;1.27;;;1.05;;
7693;SDS011;3889;48.162;11.510;2022-09-28T07:56:14;1.05;;;0.82;;
7693;SDS011;3889;48.162;11.510;2022-09-28T07:58:43;1.20;;;0.90;;
7693;SDS011;3889;48.162;11.510;2022-09-28T08:01:13;1.00;;;0.90;;
7693;SDS011;3889;48.162;11.510;2022-09-28T08:03:44;1.73;;;0.85;;
7693;SDS011;3889;48.162;11.510;2022-09-28T08:06:14;0.90;;;0.90;;
7693;SDS011;3889;48.162;11.510;2022-09-28T08:08:43;0.82;;;0.80;;
7693;SDS011;3889;48.162;11.510;2022-09-28T08:11:11;0.80;;;0.80;;
7693;SDS011;3889;48.162;11.510;2022-09-28T08:13:40;1.10;;;0.70;;
7693;SDS011;3889;48.162;11.510;2022-09-28T08:16:09;2.20;;;0.95;;
7693;SDS011;3889;48.162;11.510;2022-09-28T08:18:38;0.75;;;0.75;;
7693;SDS011;3889;48.162;11.510;2022-09-28T08:21:08;0.80;;;0.70;;
7693;SDS011;3889;48.162;11.510;2022-09-28T08:23:53;0.95;;;0.80;;
7693;SDS011;3889;48.162;11.510;2022-09-28T08:26:22;0.90;;;0.90;;
7693;SDS011;3889;48.162;11.510;2022-09-28T08:28:50;0.85;;;0.73;;
7693;SDS011;3889;48.162;11.510;2022-09-28T08:31:18;1.20;;;0.82;;
7693;SDS011;3889;48.162;11.510;2022-09-28T08:33:45;1.60;;;0.70;;
7693;SDS011;3889;48.162;11.510;2022-09-28T08:36:20;0.77;;;0.77;;
7693;SDS011;3889;48.162;11.510;2022-09-28T08:38:47;1.10;;;0.77;;
7693;SDS011;3889;48.162;11.510;2022-09-28T08:41:17;1.08;;;0.75;;
7693;SDS011;3889;48.162;11.510;2022-09-28T08:43:56;1.00;;;0.90;;
7693;SDS011;3889;48.162;11.510;2022-09-28T08:46:34;0.80;;;0.80;;
7693;SDS011;3889;48.162;11.510;2022-09-28T08:49:06;1.38;;;1.00;;
7693;SDS011;3889;48.162;11.510;2022-09-28T08:51:54;0.85;;;0.75;;
7693;SDS011;3889;48.162;11.510;2022-09-28T08:54:34;2.97;;;0.80;;
7693;SDS011;3889;48.162;11.510;2022-09-28T08:57:09;1.13;;;0.70;;
7693;SDS011;3889;48.162;11.510;2022-09-28T08:59:42;1.42;;;0.80;;
7693;SDS011;3889;48.162;11.510;2022-09-28T09:02:15;1.00;;;0.90;;
7693;SDS011;3889;48.162;11.510;2022-09-28T09:04:47;0.80;;;0.80;;
7693;SDS011;3889;48.162;11.510;2022-09-28T09:10:14;1.10;;;0.90;;
7693;SDS011;3889;48.162;11.510;2022-09-28T09:12:53;1.13;;;0.90;;
7693;SDS011;3889;48.162;11.510;2022-09-28T09:15:36;1.25;;;0.80;;
7693;SDS011;3889;48.162;11.510;2022-09-28T09:18:17;1.23;;;0.90;;
7693;SDS011;3889;48.162;11.510;2022-09-28T09:20:52;1.37;;;0.90;;
7693;SDS011;3889;48.162;11.510;2022-09-28T09:23:26;2.15;;;1.00;;
7693;SDS011;3889;48.162;11.510;2022-09-28T09:26:04;1.70;;;0.90;;
7693;SDS011;3889;48.162;11.510;2022-09-28T09:28:57;2.13;;;1.00;;
7693;SDS011;3889;48.162;11.510;2022-09-28T09:31:39;2.03;;;1.00;;
7693;SDS011;3889;48.162;11.510;2022-09-28T09:34:31;1.85;;;1.20;;
7693;SDS011;3889;48.162;11.510;2022-09-28T09:37:11;1.63;;;1.08;;
7693;SDS011;3889;48.162;11.510;2022-09-28T09:40:03;1.35;;;1.00;;
7693;SDS011;3889;48.162;11.510;2022-09-28T09:42:48;2.03;;;1.20;;
7693;SDS011;3889;48.162;11.510;2022-09-28T09:45:38;2.38;;;1.10;;
7693;SDS011;3889;48.162;11.510;2022-09-28T09:48:25;2.55;;;1.13;;
7693;SDS011;3889;48.162;11.510;2022-09-28T09:51:02;1.70;;;1.30;;
7693;SDS011;3889;48.162;11.510;2022-09-28T09:53:35;3.63;;;1.80;;
7693;SDS011;3889;48.162;11.510;2022-09-28T09:56:11;2.50;;;1.33;;
7693;SDS011;3889;48.162;11.510;2022-09-28T09:58:42;2.33;;;1.45;;
7693;SDS011;3889;48.162;11.510;2022-09-28T10:01:14;1.85;;;1.30;;
7693;SDS011;3889;48.162;11.510;2022-09-28T10:03:46;2.42;;;1.20;;
7693;SDS011;3889;48.162;11.510;2022-09-28T10:06:16;2.20;;;1.10;;
7693;SDS011;3889;48.162;11.510;2022-09-28T10:08:49;2.20;;;1.00;;
7693;SDS011;3889;48.162;11.510;2022-09-28T10:11:26;2.10;;;1.20;;
7693;SDS011;3889;48.162;11.510;2022-09-28T10:13:57;1.70;;;1.20;;
7693;SDS011;3889;48.162;11.510;2022-09-28T10:16:25;1.77;;;1.40;;
7693;SDS011;3889;48.162;11.510;2022-09-28T10:18:53;2.10;;;1.10;;
7693;SDS011;3889;48.162;11.510;2022-09-28T10:21:21;2.08;;;1.20;;
7693;SDS011;3889;48.162;11.510;2022-09-28T10:23:54;1.63;;;1.00;;
7693;SDS011;3889;48.162;11.510;2022-09-28T10:26:23;1.60;;;1.00;;
7693;SDS011;3889;48.162;11.510;2022-09-28T10:28:56;2.90;;;1.00;;
7693;SDS011;3889;48.162;11.510;2022-09-28T10:31:36;1.20;;;0.90;;
7693;SDS011;3889;48.162;11.510;2022-09-28T10:34:07;1.23;;;0.90;;
7693;SDS011;3889;48.162;11.510;2022-09-28T10:36:44;0.90;;;0.90;;
7693;SDS011;3889;48.162;11.510;2022-09-28T10:39:23;1.50;;;1.15;;
7693;SDS011;3889;48.162;11.510;2022-09-28T10:41:56;1.33;;;1.00;;
7693;SDS011;3889;48.162;11.510;2022-09-28T10:44:29;2.00;;;1.10;;
7693;SDS011;3889;48.162;11.510;2022-09-28T10:47:00;2.42;;;1.10;;
7693;SDS011;3889;48.162;11.510;2022-09-28T10:49:29;1.95;;;0.90;;
7693;SDS011;3889;48.162;11.510;2022-09-28T10:54:58;4.28;;;1.20;;
7693;SDS011;3889;48.162;11.510;2022-09-28T10:57:34;1.92;;;1.20;;
7693;SDS011;3889;48.162;11.510;2022-09-28T11:00:13;1.17;;;1.08;;
7693;SDS011;3889;48.162;11.510;2022-09-28T11:02:59;1.95;;;1.20;;
7693;SDS011;3889;48.162;11.510;2022-09-28T11:05:27;1.40;;;1.10;;
7693;SDS011;3889;48.162;11.510;2022-09-28T11:07:56;1.63;;;1.52;;
7693;SDS011;3889;48.162;11.510;2022-09-28T11:10:26;1.60;;;1.35;;
7693;SDS011;3889;48.162;11.510;2022-09-28T11:12:57;1.60;;;1.20;;
7693;SDS011;3889;48.162;11.510;2022-09-28T11:15:27;1.77;;;1.40;;
7693;SDS011;3889;48.162;11.510;2022-09-28T11:18:01;1.50;;;1.20;;
7693;SDS011;3889;48.162;11.510;2022-09-28T11:20:45;2.20;;;1.27;;
7693;SDS011;3889;48.162;11.510;2022-09-28T11:23:16;1.73;;;1.30;;
7693;SDS011;3889;48.162;11.510;2022-09-28T11:28:34;1.92;;;1.40;;
7693;SDS011;3889;48.162;11.510;2022-09-28T11:31:04;2.15;;;1.50;;
7693;SDS011;3889;48.162;11.510;2022-09-28T11:33:34;2.20;;;1.60;;
7693;SDS011;3889;48.162;11.510;2022-09-28T11:36:08;2.75;;;1.58;;
7693;SDS011;3889;48.162;11.510;2022-09-28T11:38:48;1.67;;;1.58;;
7693;SDS011;3889;48.162;11.510;2022-09-28T11:41:30;1.40;;;1.30;;
7693;SDS011;3889;48.162;11.510;2022-09-28T11:44:19;2.15;;;1.40;;
7693;SDS011;3889;48.162;11.510;2022-09-28T11:50:16;2.47;;;1.40;;
7693;SDS011;3889;48.162;11.510;2022-09-28T11:52:53;2.15;;;1.52;;
7693;SDS011;3889;48.162;11.510;2022-09-28T11:55:28;1.73;;;1.50;;
7693;SDS011;3889;48.162;11.510;2022-09-28T11:58:02;2.17;;;1.60;;
7693;SDS011;3889;48.162;11.510;2022-09-28T12:00:39;1.67;;;1.40;;
7693;SDS011;3889;48.162;11.510;2022-09-28T12:03:13;3.15;;;1.48;;
7693;SDS011;3889;48.162;11.510;2022-09-28T12:05:43;1.92;;;1.52;;
7693;SDS011;3889;48.162;11.510;2022-09-28T12:08:17;3.35;;;1.73;;
7693;SDS011;3889;48.162;11.510;2022-09-28T12:10:51;1.83;;;1.63;;
7693;SDS011;3889;48.162;11.510;2022-09-28T12:13:25;2.20;;;1.70;;
7693;SDS011;3889;48.162;11.510;2022-09-28T12:15:56;2.50;;;1.60;;
7693;SDS011;3889;48.162;11.510;2022-09-28T12:18:48;2.15;;;1.65;;
7693;SDS011;3889;48.162;11.510;2022-09-28T12:21:27;2.38;;;1.80;;
7693;SDS011;3889;48.162;11.510;2022-09-28T12:24:02;2.47;;;1.70;;
7693;SDS011;3889;48.162;11.510;2022-09-28T12:26:38;2.65;;;1.80;;
7693;SDS011;3889;48.162;11.510;2022-09-28T12:29:10;1.83;;;1.60;;
7693;SDS011;3889;48.162;11.510;2022-09-28T12:31:47;2.08;;;1.55;;
7693;SDS011;3889;48.162;11.510;2022-09-28T12:34:22;2.28;;;1.50;;
7693;SDS011;3889;48.162;11.510;2022-09-28T12:36:52;2.95;;;1.65;;
7693;SDS011;3889;48.162;11.510;2022-09-28T12:39:55;2.78;;;1.70;;
7693;SDS011;3889;48.162;11.510;2022-09-28T12:42:49;1.67;;;1.50;;
7693;SDS011;3889;48.162;11.510;2022-09-28T12:45:33;2.30;;;1.50;;
7693;SDS011;3889;48.162;11.510;2022-09-28T12:48:40;3.50;;;2.10;;
7693;SDS011;3889;48.162;11.510;2022-09-28T12:51:47;2.03;;;1.70;;
7693;SDS011;3889;48.162;11.510;2022-09-28T12:57:29;2.15;;;1.90;;
7693;SDS011;3889;48.162;11.510;2022-09-28T13:00:04;2.00;;;1.80;;
7693;SDS011;3889;48.162;11.510;2022-09-28T13:02:40;2.10;;;1.77;;
7693;SDS011;3889;48.162;11.510;2022-09-28T13:05:31;1.77;;;1.45;;
7693;SDS011;3889;48.162;11.510;2022-09-28T13:08:12;2.77;;;1.70;;
7693;SDS011;3889;48.162;11.510;2022-09-28T13:10:49;2.60;;;1.80;;
7693;SDS011;3889;48.162;11.510;2022-09-28T13:13:32;2.88;;;1.85;;
7693;SDS011;3889;48.162;11.510;2022-09-28T13:16:12;4.27;;;2.17;;
7693;SDS011;3889;48.162;11.510;2022-09-28T13:18:48;4.00;;;1.90;;
7693;SDS011;3889;48.162;11.510;2022-09-28T13:21:23;2.03;;;1.70;;
7693;SDS011;3889;48.162;11.510;2022-09-28T13:23:56;3.47;;;2.40;;
7693;SDS011;3889;48.162;11.510;2022-09-28T13:26:46;2.17;;;1.90;;
7693;SDS011;3889;48.162;11.510;2022-09-28T13:29:15;2.07;;;1.60;;
7693;SDS011;3889;48.162;11.510;2022-09-28T13:31:45;1.88;;;1.67;;
7693;SDS011;3889;48.162;11.510;2022-09-28T13:34:16;3.40;;;2.00;;
7693;SDS011;3889;48.162;11.510;2022-09-28T13:39:46;2.95;;;2.15;;
7693;SDS011;3889;48.162;11.510;2022-09-28T13:42:24;3.00;;;2.23;;
7693;SDS011;3889;48.162;11.510;2022-09-28T13:48:01;4.22;;;1.98;;
7693;SDS011;3889;48.162;11.510;2022-09-28T13:50:44;2.67;;;2.10;;
7693;SDS011;3889;48.162;11.510;2022-09-28T13:53:38;2.35;;;2.15;;
7693;SDS011;3889;48.162;11.510;2022-09-28T13:56:18;3.15;;;2.10;;
7693;SDS011;3889;48.162;11.510;2022-09-28T13:58:53;4.03;;;2.25;;
7693;SDS011;3889;48.162;11.510;2022-09-28T14:01:28;2.95;;;2.15;;
7693;SDS011;3889;48.162;11.510;2022-09-28T14:04:10;3.50;;;2.10;;
7693;SDS011;3889;48.162;11.510;2022-09-28T14:06:40;2.28;;;1.77;;
7693;SDS011;3889;48.162;11.510;2022-09-28T14:12:29;3.70;;;2.08;;
7693;SDS011;3889;48.162;11.510;2022-09-28T14:18:18;4.00;;;1.98;;
7693;SDS011;3889;48.162;11.510;2022-09-28T14:21:00;2.42;;;1.90;;
7693;SDS011;3889;48.162;11.510;2022-09-28T14:23:44;2.78;;;2.10;;
7693;SDS011;3889;48.162;11.510;2022-09-28T14:26:55;2.42;;;2.22;;
7693;SDS011;3889;48.162;11.510;2022-09-28T14:29:49;2.90;;;2.35;;
7693;SDS011;3889;48.162;11.510;2022-09-28T14:32:31;3.40;;;2.15;;
7693;SDS011;3889;48.162;11.510;2022-09-28T14:35:02;3.10;;;2.30;;
7693;SDS011;3889;48.162;11.510;2022-09-28T14:37:32;3.58;;;2.25;;
7693;SDS011;3889;48.162;11.510;2022-09-28T14:40:20;2.78;;;2.30;;
7693;SDS011;3889;48.162;11.510;2022-09-28T14:43:26;3.00;;;2.30;;
7693;SDS011;3889;48.162;11.510;2022-09-28T14:49:02;2.65;;;2.30;;
7693;SDS011;3889;48.162;11.510;2022-09-28T14:54:37;4.35;;;2.40;;
7693;SDS011;3889;48.162;11.510;2022-09-28T14:57:18;5.40;;;3.00;;
7693;SDS011;3889;48.162;11.510;2022-09-28T14:59:52;4.22;;;2.40;;
7693;SDS011;3889;48.162;11.510;2022-09-28T15:02:22;3.65;;;2.60;;
7693;SDS011;3889;48.162;11.510;2022-09-28T15:04:53;3.78;;;2.55;;
7693;SDS011;3889;48.162;11.510;2022-09-28T15:07:25;3.15;;;2.72;;
7693;SDS011;3889;48.162;11.510;2022-09-28T15:09:58;3.53;;;2.20;;
7693;SDS011;3889;48.162;11.510;2022-09-28T15:12:27;4.57;;;2.60;;
7693;SDS011;3889;48.162;11.510;2022-09-28T15:14:58;3.53;;;2.55;;
7693;SDS011;3889;48.162;11.510;2022-09-28T15:17:29;3.40;;;2.63;;
7693;SDS011;3889;48.162;11.510;2022-09-28T15:20:17;4.03;;;2.60;;
7693;SDS011;3889;48.162;11.510;2022-09-28T15:22:50;3.50;;;2.60;;
7693;SDS011;3889;48.162;11.510;2022-09-28T15:25:20;2.72;;;2.28;;
7693;SDS011;3889;48.162;11.510;2022-09-28T15:27:50;4.78;;;2.90;;
7693;SDS011;3889;48.162;11.510;2022-09-28T15:30:23;3.35;;;2.45;;
7693;SDS011;3889;48.162;11.510;2022-09-28T15:32:53;4.25;;;2.55;;
7693;SDS011;3889;48.162;11.510;2022-09-28T15:35:44;4.47;;;2.67;;
7693;SDS011;3889;48.162;11.510;2022-09-28T15:38:13;4.90;;;2.57;;
7693;SDS011;3889;48.162;11.510;2022-09-28T15:40:43;4.05;;;2.80;;
7693;SDS011;3889;48.162;11.510;2022-09-28T15:43:19;3.97;;;2.75;;
7693;SDS011;3889;48.162;11.510;2022-09-28T15:45:56;4.68;;;2.92;;
7693;SDS011;3889;48.162;11.510;2022-09-28T15:48:28;4.88;;;2.88;;
7693;SDS011;3889;48.162;11.510;2022-09-28T15:51:00;5.07;;;2.97;;
7693;SDS011;3889;48.162;11.510;2022-09-28T15:53:35;4.22;;;2.92;;
7693;SDS011;3889;48.162;11.510;2022-09-28T15:56:08;3.83;;;2.90;;
7693;SDS011;3889;48.162;11.510;2022-09-28T15:58:37;3.85;;;2.90;;
7693;SDS011;3889;48.162;11.510;2022-09-28T16:07:03;4.32;;;3.05;;
7693;SDS011;3889;48.162;11.510;2022-09-28T16:09:53;5.05;;;3.03;;
7693;SDS011;3889;48.162;11.510;2022-09-28T16:12:22;3.42;;;2.60;;
7693;SDS011;3889;48.162;11.510;2022-09-28T16:14:57;3.17;;;2.72;;
7693;SDS011;3889;48.162;11.510;2022-09-28T16:17:31;5.00;;;3.00;;
7693;SDS011;3889;48.162;11.510;2022-09-28T16:20:02;4.25;;;2.80;;